KBIL/BIL METAR and TAF weather

Enter ICAO airport designator
Station Type Date Time Source
KBIL METAR 2023/09/21 17:53 UTC NOAA

KBIL 211753Z 35010KT 10SM OVC016 11/07 A3006 RMK AO2 SLP173 T01110067 10111 20100 51006


Station Type Date Time Source
KBIL Decoded METAR 2023/09/21 17:53 UTC NOAA

LOGAN INTERNATIONAL AIRPORT, MT, United States (KBIL) 45-49N 108-33W 1091M
Sep 21, 2023 - 01:53 PM EDT / 2023.09.21 1753 UTC
Wind: from the N (350 degrees) at 12 MPH (10 KT):0
Visibility: 10 mile(s):0
Sky conditions: overcast
Temperature: 52.0 F (11.1 C)
Dew Point: 44.1 F (6.7 C)
Relative Humidity: 74%
Pressure (altimeter): 30.06 in. Hg (1017 hPa)
Pressure tendency: 0.02 inches (0.6 hPa) higher than three hours ago
ob: KBIL 211753Z 35010KT 10SM OVC016 11/07 A3006 RMK AO2 SLP173 T01110067 10111 20100 51006
cycle: 18

Station Type Date Time Source
KBIL TAF 2023/09/21 18:42 UTC NOAA

TAF KBIL 211740Z 2118/2218 02011KT P6SM OVC015
FM212200 01011KT P6SM VCSH SCT015 OVC022
FM220100 36013KT P6SM -SHRA VCTS BKN020 OVC050CB
FM220600 01011KT P6SM -SHRA VCTS BKN015 OVC040CB
FM221200 03010KT 6SM SHRA BR VCTS BKN008 OVC030CB

Example: see airport list